Details for Ryanair at LZIB




Go Back


Latest METAR
Local Time

LZIB 220900Z 29009KT 9999 FEW014 14/11 Q1023 NOSIG
22/09/2018, 11:02:10

Description
Results
Ryanair Logo
Number of Pilots based at LZIB
0 Pilots Based here
Number of Ryanair Flights Departed from LZIB
2 Flights Departed
Number of Ryanair Flights Arrived at LZIB
2 Flights Arrived
Number of Ryanair Schedules Departing from LZIB
34 Schedules
Number of Ryanair Schedules Arriving at LZIB
36 Schedules
Number of Ryanair Schedules Departing from LZIB availible today
9 Schedules Today
Number of Ryanair Schedules Arriving at LZIB availible today
9 Schedules Today
Average Landing Rate at LZIB
-162 fpm
Ryanair Average Landing Rate at LZIB
-300 fpm
Total Fuel Purchased at LZIB by Ryanair
7,188.53 kgs / 15,847.83 lbs

Pilots Based at LZIB


Pilot ID
Pilot Name
Pilot Rank
No. of Flights
No. of Flying Hours
There are no pilots assigned to this hub!   Will you be the first?
Content